Impacts TAF Board
For situational awareness. Not to be used for flight planning purposes.
IDs:

KJAN - Jackson/Evers Intl, MS, US

Issued at 0520 UTC 24 Jan 2019
Updated at 0637 UTC 24 Jan 2019
Potential Impact None Slight Moderate High
Time<<24/19Z 24/20Z 24/21Z 24/22Z 24/23Z 25/00Z 25/01Z 25/02Z 25/03Z 25/04Z 25/05Z 25/06Z 25/07Z>>
Type PRVL PRVL PRVL PRVL PRVL PRVL PRVL PRVL PRVL PRVL PRVL
VIS >6 >6 >6 >6 >6 >6 >6 >6 >6 >6 >6
CIG -- -- -- -- -- -- -- -- -- -- --
Cover SKC SKC SKC SKC SKC SKC SKC FEW FEW FEW FEW
FltCat VFR VFR VFR VFR VFR VFR VFR VFR VFR VFR VFR
WX -- -- -- -- -- -- -- -- -- -- --
WDir 330 330 330 330 330 330 330 200 200 200 200
WSpd 7 7 7 7 7 7 7 3 3 3 3
WGst -- -- -- -- -- -- -- -- -- -- --
Raw TAF
KJAN 240520Z 2406/2506 32010KT P6SM OVC012
  FM240800 32008KT P6SM BKN025
  FM241000 33007KT P6SM SKC
  FM250200 20003KT P6SM FEW250


METAR Board
Radar Display
Forecast Discussion
For situational awareness. Not to be used for flight planning purposes.